Latest Coastal Weather Observations for Cape Byron

IDN60701

Issued at 1:02 am EST Wednesday 31 August 2016 (issued every 10 minutes, with the page automatically refreshed every 10 minutes)

About coastal observations | Map of coastal stations | Coastal observations for NSW | Marine services | Other Formats
Station Details ID: 058216 Name: CAPE BYRON AWS Lat: -28.64 Lon: 153.64 Height: 95.0 m
Data from the previous 72 hours. | See also: Recent months at Cape Byron
Date/Time
EST
Temp
°C
Wind Pressure Rain since
9am
mm
Weather Cloud Vis
km
Sea
Height
m
Swell
Dir  Spd
kts
Gust
kts
hPa Trend Height
m
Period
s
Dir
31/01:00am 14.2 NW 5 6 1026.2 - 0.0 - - - - - - -
31/12:30am 14.7 NNW 6 8 1026.5 - 0.0 - - - - - - -
31/12:00am 15.1 NW 6 8 1026.6 - 0.0 - - - - - - -
 
Date/Time
EST
Temp
°C
Wind Pressure Rain since
9am
mm
Weather Cloud Vis
km
Sea
Height
m
Swell
Dir  Spd
kts
Gust
kts
hPa Trend Height
m
Period
s
Dir
30/11:30pm 15.6 NNW 6 8 1026.7 - 0.0 - - - - - - -
30/11:00pm 16.2 NNW 6 8 1026.9 - 0.0 - - - - - - -
30/10:30pm 16.1 NNW 6 8 1027.1 - 0.0 - - - - - - -
30/10:00pm 16.1 NNW 5 8 1027.5 - 0.0 - - - - - - -
30/09:30pm 16.4 NW 5 8 1027.6 - 0.0 - - - - - - -
30/09:00pm 18.4 NNE 7 11 1027.9 - 0.0 - - - - - - -
30/08:30pm 18.3 NNE 10 14 1027.4 - 0.0 - - - - - - -
30/08:00pm 18.5 NNE 8 12 1027.9 - 0.0 - - - - - - -
30/07:30pm 18.4 NE 9 12 1027.5 - 0.0 - - - - - - -
30/07:00pm 18.4 NNE 9 12 1027.4 - 0.0 - - - - - - -
30/06:30pm 18.3 NE 10 15 1027.0 - 0.0 - - - - - - -
30/06:00pm 18.4 NE 8 13 1026.7 - 0.0 - - - - - - -
30/05:30pm 18.3 NE 10 13 1026.7 - 0.0 - - - - - - -
30/05:00pm 18.6 NE 11 13 1026.6 - 0.0 - - - - - - -
30/04:30pm 19.4 NE 9 11 1026.7 - 0.0 - - - - - - -
30/04:00pm 20.3 NE 7 9 1026.9 - 0.0 - - - - - - -
30/03:30pm 20.5 NE 8 11 1027.0 - 0.0 - - - - - - -
30/03:00pm 21.1 NE 7 10 1027.0 - 0.0 - - - - - - -
30/02:30pm 22.2 NE 7 9 1027.2 - 0.0 - - - - - - -
30/02:00pm 22.6 NE 8 11 1027.3 - 0.0 - - - - - - -
30/01:30pm 22.6 ENE 7 9 1027.4 - 0.0 - - - - - - -
30/01:00pm 22.5 E 8 10 1027.6 - 0.0 - - - - - - -
30/12:30pm 22.5 ENE 8 10 1027.9 - 0.0 - - - - - - -
30/12:00pm 22.5 ENE 8 10 1028.5 - 0.0 - - - - - - -
30/11:30am 22.1 E 8 11 1028.9 - 0.0 - - - - - - -
30/11:00am 21.3 E 7 11 1029.2 - 0.0 - - - - - - -
30/10:30am 21.2 E 7 10 1029.9 - 0.0 - - - - - - -
30/10:00am 21.1 E 8 11 1029.9 - 0.0 - - - - - - -
30/09:30am 20.8 E 7 11 1029.9 - 0.0 - - - - - - -
30/09:00am 20.8 E 7 12 1029.5 - 0.0 - - - - - - -
30/08:30am 20.7 E 7 9 1029.7 - 0.0 - - - - - - -
30/08:00am 19.9 ENE 6 8 1029.6 - 0.0 - - - - - - -
30/07:30am 18.3 ENE 5 7 1028.9 - 0.0 - - - - - - -
30/07:00am 17.7 ESE 1 4 1028.3 - 0.0 - - - - - - -
30/06:30am 17.0 NNW 3 6 1027.6 - 0.0 - - - - - - -
30/06:00am 16.6 NW 4 5 1027.2 - 0.0 - - - - - - -
30/05:30am 16.8 N 4 6 1026.7 - 0.0 - - - - - - -
30/05:00am 16.6 NW 3 4 1026.5 - 0.0 - - - - - - -
30/04:30am 16.7 N 5 6 1026.1 - 0.0 - - - - - - -
30/04:00am 16.7 N 5 7 1025.7 - 0.0 - - - - - - -
30/03:30am 16.8 NNE 5 9 1025.7 - 0.0 - - - - - - -
30/03:00am 17.3 NNE 7 10 1025.5 - 0.0 - - - - - - -
30/02:30am 17.6 NNE 7 9 1025.4 - 0.0 - - - - - - -
30/02:00am 17.5 NNE 7 9 1025.6 - 0.0 - - - - - - -
30/01:30am 17.8 NNE 6 9 1025.9 - 0.0 - - - - - - -
30/01:00am 17.3 NNW 5 8 1026.3 - 0.0 - - - - - - -
30/12:30am 17.4 N 6 9 1026.4 - 0.0 - - - - - - -
30/12:00am 17.1 NNW 6 8 1026.5 - 0.0 - - - - - - -
 
Date/Time
EST
Temp
°C
Wind Pressure Rain since
9am
mm
Weather Cloud Vis
km
Sea
Height
m
Swell
Dir  Spd
kts
Gust
kts
hPa Trend Height
m
Period
s
Dir
29/11:30pm 17.2 N 5 8 1026.8 - 0.0 - - - - - - -
29/11:00pm 17.6 N 5 8 1026.9 - 0.0 - - - - - - -
29/10:30pm 18.3 NNE 8 12 1026.9 - 0.0 - - - - - - -
29/10:00pm 18.4 NNE 9 13 1027.1 - 0.0 - - - - - - -
29/09:30pm 18.3 NNE 9 12 1027.1 - 0.0 - - - - - - -
29/09:00pm 18.4 NNE 8 12 1026.9 - 0.0 - - - - - - -
29/08:30pm 18.5 NE 10 14 1027.1 - 0.0 - - - - - - -
29/08:00pm 18.3 NNE 7 10 1027.2 - 0.0 - - - - - - -
29/07:30pm 18.2 NE 9 12 1026.8 - 0.0 - - - - - - -
29/07:00pm 18.2 NE 8 13 1026.7 - 0.0 - - - - - - -
29/06:30pm 18.2 NE 10 13 1026.4 - 0.0 - - - - - - -
29/06:00pm 18.0 NE 10 12 1025.9 - 0.0 - - - - - - -
29/05:30pm 17.9 ENE 9 12 1025.7 - 0.0 - - - - - - -
29/05:00pm 18.6 ENE 6 10 1025.6 - 0.0 - - - - - - -
29/04:30pm 20.0 ENE 6 8 1025.5 - 0.0 - - - - - - -
29/04:00pm 20.8 ENE 7 9 1025.1 - 0.0 - - - - - - -
29/03:30pm 20.7 E 6 8 1025.1 - 0.0 - - - - - - -
29/03:00pm 21.2 E 5 8 1025.1 - 0.0 - - - - - - -
29/02:30pm 21.8 ENE 6 8 1025.0 - 0.0 - - - - - - -
29/02:00pm 21.5 E 7 8 1025.1 - 0.0 - - - - - - -
29/01:30pm 22.0 ENE 7 8 1025.1 - 0.0 - - - - - - -
29/01:00pm 21.9 ENE 7 8 1025.2 - 0.0 - - - - - - -
29/12:30pm 21.4 E 7 8 1025.6 - 0.0 - - - - - - -
29/12:00pm 20.6 E 7 8 1026.0 - 0.0 - - - - - - -
29/11:30am 20.2 SE 6 8 1026.2 - 0.0 - - - - - - -
29/11:00am 19.4 S 5 7 1026.5 - 0.0 - - - - - - -
29/10:30am 18.6 S 6 7 1026.5 - 0.0 - - - - - - -
29/10:00am 18.4 SW 7 10 1026.6 - 0.0 - - - - - - -
29/09:30am 17.3 WSW 8 12 1026.6 - 0.0 - - - - - - -
29/09:00am 16.2 SW 9 11 1026.4 - 0.0 - - - - - - -
29/08:30am 15.5 WSW 9 11 1026.4 - 0.0 - - - - - - -
29/08:00am 14.7 WSW 8 10 1026.0 - 0.0 - - - - - - -
29/07:30am 13.8 SW 6 8 1025.7 - 0.0 - - - - - - -
29/07:00am 14.3 SW 5 7 1025.1 - 0.0 - - - - - - -
29/06:30am 14.8 NW 3 4 1024.8 - 0.0 - - - - - - -
29/06:00am 14.9 NW 1 4 1024.2 - 0.0 - - - - - - -
29/05:30am 14.9 NNW 4 6 1023.8 - 0.0 - - - - - - -
29/05:00am 14.5 NW 2 4 1023.6 - 0.0 - - - - - - -
29/04:30am 14.6 NNW 5 8 1023.2 - 0.0 - - - - - - -
29/04:00am 14.1 NNW 5 7 1023.0 - 0.0 - - - - - - -
29/03:30am 13.7 NW 5 6 1023.0 - 0.0 - - - - - - -
29/03:00am 14.0 NW 3 5 1022.9 - 0.0 - - - - - - -
29/02:30am 14.1 NNW 3 5 1023.1 - 0.0 - - - - - - -
29/02:00am 14.2 WNW 3 6 1023.3 - 0.0 - - - - - - -
29/01:30am 14.2 NNW 3 5 1023.3 - 0.0 - - - - - - -
29/01:00am 14.0 NW 4 5 1023.3 - 0.0 - - - - - - -
29/12:30am 13.8 NW 4 6 1023.3 - 0.0 - - - - - - -
29/12:00am 13.7 NNW 4 6 1023.2 - 0.0 - - - - - - -
 
Date/Time
EST
Temp
°C
Wind Pressure Rain since
9am
mm
Weather Cloud Vis
km
Sea
Height
m
Swell
Dir  Spd
kts
Gust
kts
hPa Trend Height
m
Period
s
Dir
28/11:30pm 13.2 NW 5 7 1023.1 - 0.0 - - - - - - -
28/11:00pm 13.5 NW 5 7 1023.2 - 0.0 - - - - - - -
28/10:30pm 13.7 NW 6 8 1023.2 - 0.0 - - - - - - -
28/10:00pm 13.9 NW 6 8 1023.3 - 0.0 - - - - - - -
28/09:30pm 14.6 NW 6 8 1023.3 - 0.0 - - - - - - -
28/09:00pm 15.7 NW 6 7 1023.2 - 0.0 - - - - - - -
28/08:30pm 17.7 NNE 8 10 1023.1 - 0.0 - - - - - - -
28/08:00pm 17.6 NE 8 11 1023.0 - 0.0 - - - - - - -
28/07:30pm 17.5 NE 7 9 1022.8 - 0.0 - - - - - - -
28/07:00pm 17.3 NE 8 10 1022.7 - 0.0 - - - - - - -
28/06:30pm 16.7 ENE 8 9 1022.4 - 0.0 - - - - - - -
28/06:00pm 17.0 ENE 7 9 1022.3 - 0.0 - - - - - - -
28/05:30pm 17.3 ENE 6 9 1022.0 - 0.0 - - - - - - -
28/05:00pm 18.1 E 5 7 1022.0 - 0.0 - - - - - - -
28/04:30pm 19.2 E 6 8 1021.5 - 0.0 - - - - - - -
28/04:00pm 19.9 E 8 11 1021.2 - 0.0 - - - - - - -
28/03:30pm 19.7 E 10 12 1021.1 - 0.0 - - - - - - -
28/03:00pm 19.8 E 10 13 1021.2 - 0.0 - - - - - - -
28/02:30pm 20.2 E 9 12 1021.3 - 0.0 - - - - - - -
28/02:00pm 20.2 E 9 11 1021.5 - 0.0 - - - - - - -
28/01:30pm 20.2 ESE 9 10 1021.7 - 0.0 - - - - - - -
28/01:00pm 20.1 SE 8 10 1022.1 - 0.0 - - - - - - -
28/12:30pm 19.9 SSE 6 8 1022.5 - 0.0 - - - - - - -
28/12:00pm 19.8 SSE 7 9 1022.9 - 0.0 - - - - - - -
28/11:30am 18.9 S 8 11 1023.4 - 0.0 - - - - - - -
28/11:00am 18.9 SSW 9 13 1023.7 - 0.0 - - - - - - -
28/10:30am 18.3 SSW 11 15 1023.8 - 0.0 - - - - - - -
28/10:00am 17.6 SW 10 15 1023.9 - 0.0 - - - - - - -
28/09:30am 16.7 SW 10 15 1024.1 - 0.0 - - - - - - -
28/09:00am 15.6 SW 14 18 1024.0 - 0.2 - - - - - - -
28/08:30am 14.5 SW 17 24 1023.9 - 0.2 - - - - - - -
28/08:00am 13.7 WSW 17 21 1023.7 - 0.2 - - - - - - -
28/07:30am 13.0 WSW 16 22 1023.4 - 0.2 - - - - - - -
28/07:00am 12.5 SW 16 20 1022.8 - 0.2 - - - - - - -
28/06:30am 12.2 WSW 17 21 1022.4 - 0.2 - - - - - - -
28/06:00am 11.9 WSW 16 21 1022.2 - 0.2 - - - - - - -
28/05:30am 12.1 WSW 18 23 1021.9 - 0.2 - - - - - - -
28/05:00am 12.2 WSW 17 21 1021.5 - 0.2 - - - - - - -
28/04:30am 12.0 WSW 18 22 1021.3 - 0.2 - - - - - - -
28/04:00am 12.1 WSW 17 21 1021.3 - 0.2 - - - - - - -
28/03:30am 12.2 WSW 17 22 1021.0 - 0.2 - - - - - - -
28/03:00am 12.3 WSW 15 20 1021.1 - 0.2 - - - - - - -
28/02:30am 12.5 WSW 19 22 1021.2 - 0.2 - - - - - - -
28/02:00am 12.6 WSW 19 25 1021.3 - 0.2 - - - - - - -
28/01:30am 12.5 WSW 19 24 1021.3 - 0.2 - - - - - - -

Other Formats:

Comma delimited format used in spreadsheet applications
http://www.bom.gov.au/fwo/IDN60701/IDN60701.94599.axf

JavaScript Object Notation format (JSON) in row-major order
http://www.bom.gov.au/fwo/IDN60701/IDN60701.94599.json